createdAt,value
2018-11-01T00:01:28.918Z,3.87
2018-11-01T00:03:57.669Z,4.43
2018-11-01T00:06:26.869Z,5.23
2018-11-01T00:08:55.855Z,4.37
2018-11-01T00:11:24.917Z,4.53
2018-11-01T00:13:54.109Z,6.13
2018-11-01T00:16:23.432Z,5.80
2018-11-01T00:18:52.900Z,5.10
2018-11-01T00:21:22.120Z,5.17
2018-11-01T00:23:51.464Z,5.30
2018-11-01T00:26:20.583Z,5.60
2018-11-01T00:28:49.310Z,5.93
2018-11-01T00:31:18.733Z,6.87
2018-11-01T00:33:47.979Z,4.20
2018-11-01T00:36:16.734Z,4.50
2018-11-01T00:38:45.566Z,3.60
2018-11-01T00:41:14.627Z,5.97
2018-11-01T00:43:43.852Z,5.17
2018-11-01T00:46:13.064Z,7.30
2018-11-01T00:48:42.453Z,6.37
2018-11-01T00:51:11.418Z,7.03
2018-11-01T00:53:40.628Z,4.97
2018-11-01T00:56:09.984Z,5.63
2018-11-01T00:58:39.147Z,5.37
2018-11-01T01:01:11.008Z,5.53
2018-11-01T01:03:40.300Z,4.80
2018-11-01T01:06:09.536Z,6.23
2018-11-01T01:08:38.497Z,5.83
2018-11-01T01:11:07.896Z,4.83
2018-11-01T01:13:37.243Z,5.27
2018-11-01T01:16:06.244Z,4.80
2018-11-01T01:18:35.009Z,5.47
2018-11-01T01:21:03.959Z,5.03
2018-11-01T01:23:33.253Z,6.10
2018-11-01T01:26:02.485Z,6.13
2018-11-01T01:28:31.753Z,4.60
2018-11-01T01:31:00.939Z,5.27
2018-11-01T01:33:30.233Z,5.43
2018-11-01T01:35:59.171Z,5.60
2018-11-01T01:38:28.144Z,5.30
2018-11-01T01:40:56.994Z,4.33
2018-11-01T01:43:25.747Z,5.53
2018-11-01T01:45:54.898Z,5.93
2018-11-01T01:48:23.953Z,6.97
2018-11-01T01:50:52.792Z,5.33
2018-11-01T01:53:21.426Z,6.87
2018-11-01T01:55:50.615Z,5.97
2018-11-01T01:58:19.853Z,5.37
2018-11-01T02:00:48.990Z,6.30
2018-11-01T02:03:17.995Z,5.93
2018-11-01T02:05:46.949Z,5.20
2018-11-01T02:08:16.320Z,8.13
2018-11-01T02:10:45.306Z,7.60
2018-11-01T02:13:14.945Z,6.07
2018-11-01T02:15:43.865Z,7.27
2018-11-01T02:18:13.062Z,6.57
2018-11-01T02:20:42.279Z,7.47
2018-11-01T02:23:11.813Z,7.47
2018-11-01T02:25:41.089Z,8.23
2018-11-01T02:28:16.382Z,6.27
2018-11-01T02:30:45.104Z,5.63
2018-11-01T02:33:14.308Z,5.80
2018-11-01T02:35:43.141Z,5.80
2018-11-01T02:38:11.903Z,5.50
2018-11-01T02:40:40.584Z,6.13
2018-11-01T02:43:09.310Z,4.93
2018-11-01T02:45:38.099Z,7.97
2018-11-01T02:48:06.839Z,7.80
2018-11-01T02:50:35.797Z,5.40
2018-11-01T02:53:04.992Z,6.80
2018-11-01T02:55:33.870Z,6.63
2018-11-01T02:58:03.247Z,7.43
2018-11-01T03:00:32.745Z,6.60
2018-11-01T03:03:02.039Z,6.20
2018-11-01T03:05:31.300Z,6.00
2018-11-01T03:08:00.560Z,5.87
2018-11-01T03:10:30.006Z,5.40
2018-11-01T03:12:59.336Z,4.70
2018-11-01T03:15:28.792Z,4.60
2018-11-01T03:17:57.609Z,6.17
2018-11-01T03:20:26.814Z,5.20
2018-11-01T03:22:56.026Z,3.60
2018-11-01T03:25:25.292Z,6.20
2018-11-01T03:27:54.912Z,4.17
2018-11-01T03:30:24.397Z,6.50
2018-11-01T03:32:53.210Z,5.50
2018-11-01T03:35:22.678Z,6.40
2018-11-01T03:37:51.524Z,4.30
2018-11-01T03:40:20.711Z,3.97
2018-11-01T03:42:50.131Z,5.07
2018-11-01T03:45:19.605Z,5.40
2018-11-01T03:47:49.097Z,6.60
2018-11-01T03:50:18.353Z,4.70
2018-11-01T03:55:15.843Z,4.93
2018-11-01T03:57:45.051Z,5.43
2018-11-01T04:00:15.874Z,3.43
2018-11-01T04:02:46.535Z,4.60
2018-11-01T04:05:16.072Z,7.57
2018-11-01T04:07:45.745Z,4.53
2018-11-01T04:10:15.073Z,4.83
2018-11-01T04:12:44.453Z,5.00
2018-11-01T04:15:14.793Z,6.10
2018-11-01T04:17:44.550Z,6.17
2018-11-01T04:20:14.092Z,5.07
2018-11-01T04:22:43.401Z,4.20
2018-11-01T04:25:13.217Z,4.70
2018-11-01T04:27:42.493Z,4.97
2018-11-01T04:30:11.776Z,5.13
2018-11-01T04:32:41.090Z,6.43
2018-11-01T04:35:10.676Z,5.57
2018-11-01T04:37:40.309Z,5.53
2018-11-01T04:40:09.729Z,5.33
2018-11-01T04:42:39.072Z,5.17
2018-11-01T04:45:08.523Z,6.90
2018-11-01T04:47:37.982Z,6.53
2018-11-01T04:50:07.469Z,5.90
2018-11-01T04:52:36.859Z,4.87
2018-11-01T04:55:05.942Z,6.03
2018-11-01T04:57:35.056Z,5.13
2018-11-01T05:00:04.807Z,5.10
2018-11-01T05:02:33.722Z,5.80
2018-11-01T05:05:03.314Z,5.43
2018-11-01T05:07:32.057Z,4.00
2018-11-01T05:10:01.200Z,3.90
2018-11-01T05:12:30.388Z,5.13
2018-11-01T05:14:59.231Z,3.40
2018-11-01T05:17:28.477Z,4.83
2018-11-01T05:19:57.967Z,3.90
2018-11-01T05:22:26.813Z,3.90
2018-11-01T05:24:55.747Z,4.17
2018-11-01T05:27:25.073Z,4.27
2018-11-01T05:29:54.176Z,6.07
2018-11-01T05:32:23.628Z,3.67
2018-11-01T05:34:52.738Z,5.50
2018-11-01T05:37:22.208Z,3.90
2018-11-01T05:39:51.532Z,4.70
2018-11-01T05:42:20.348Z,5.50
2018-11-01T05:44:49.549Z,4.90
2018-11-01T05:47:18.822Z,5.20
2018-11-01T05:49:47.701Z,6.80
2018-11-01T05:52:16.443Z,5.23
2018-11-01T05:54:45.724Z,5.13
2018-11-01T05:57:14.540Z,4.63
2018-11-01T05:59:43.734Z,5.10
2018-11-01T06:02:17.487Z,4.70
2018-11-01T06:04:47.096Z,5.37
2018-11-01T06:07:17.519Z,4.93
2018-11-01T06:09:46.340Z,4.53
2018-11-01T06:12:15.325Z,3.60
2018-11-01T06:14:44.498Z,4.07
2018-11-01T06:17:13.362Z,4.27
2018-11-01T06:19:42.422Z,6.20
2018-11-01T06:22:11.647Z,5.60
2018-11-01T06:24:40.442Z,5.80
2018-11-01T06:27:09.190Z,6.60
2018-11-01T06:29:38.456Z,5.33
2018-11-01T06:32:07.315Z,5.40
2018-11-01T06:34:43.133Z,5.00
2018-11-01T06:37:12.727Z,3.87
2018-11-01T06:39:41.918Z,4.83
2018-11-01T06:42:11.110Z,5.07
2018-11-01T06:44:40.040Z,4.77
2018-11-01T06:47:09.041Z,5.90
2018-11-01T06:49:38.381Z,5.20
2018-11-01T06:52:07.316Z,5.23
2018-11-01T06:54:36.076Z,4.60
2018-11-01T06:57:05.319Z,5.33
2018-11-01T07:04:45.361Z,4.03
2018-11-01T07:07:14.746Z,6.43
2018-11-01T07:09:44.110Z,5.23
2018-11-01T07:12:12.981Z,4.27
2018-11-01T07:14:41.738Z,7.13
2018-11-01T07:17:11.055Z,8.93
2018-11-01T07:19:40.187Z,8.63
2018-11-01T07:22:09.005Z,6.17
2018-11-01T07:24:38.312Z,5.47
2018-11-01T07:27:07.735Z,13.93
2018-11-01T07:29:36.900Z,7.90
2018-11-01T07:32:06.185Z,4.80
2018-11-01T07:34:35.014Z,5.60
2018-11-01T07:37:03.944Z,4.33
2018-11-01T07:39:32.868Z,7.63
2018-11-01T07:42:01.700Z,7.67
2018-11-01T07:44:36.909Z,6.17
2018-11-01T07:47:06.110Z,4.63
2018-11-01T07:49:35.181Z,6.90
2018-11-01T07:52:05.078Z,4.03
2018-11-01T07:54:34.419Z,4.63
2018-11-01T07:57:03.739Z,7.37
2018-11-01T07:59:32.608Z,5.93
2018-11-01T08:02:02.000Z,6.07
2018-11-01T08:17:30.588Z,5.50
2018-11-01T08:19:59.676Z,4.80
2018-11-01T08:22:28.338Z,4.23
2018-11-01T08:24:57.724Z,4.90
2018-11-01T08:27:26.674Z,7.10
2018-11-01T08:29:55.682Z,5.70
2018-11-01T08:32:24.708Z,6.13
2018-11-01T08:34:53.971Z,5.97
2018-11-01T08:37:23.217Z,5.87
2018-11-01T08:39:52.018Z,5.80
2018-11-01T08:42:21.120Z,6.50
2018-11-01T08:44:50.189Z,6.20
2018-11-01T08:47:19.285Z,6.53
2018-11-01T08:49:48.448Z,6.63
2018-11-01T08:52:18.163Z,9.10
2018-11-01T08:54:47.468Z,8.30
2018-11-01T08:57:16.911Z,8.93
2018-11-01T08:59:45.756Z,7.60
2018-11-01T09:02:14.546Z,7.80
2018-11-01T09:04:43.663Z,8.40
2018-11-01T09:07:12.494Z,8.43
2018-11-01T09:09:41.258Z,9.77
2018-11-01T09:12:10.704Z,8.53
2018-11-01T09:14:39.582Z,8.30
2018-11-01T09:17:08.913Z,9.70
2018-11-01T09:19:38.081Z,9.40
2018-11-01T09:22:07.457Z,10.97
2018-11-01T09:24:36.342Z,9.23
2018-11-01T09:27:06.378Z,10.37
2018-11-01T09:29:37.688Z,9.27
2018-11-01T09:45:06.386Z,7.53
2018-11-01T09:52:31.624Z,7.10
2018-11-01T09:55:00.724Z,7.30
2018-11-01T09:57:29.882Z,10.43
2018-11-01T09:59:59.074Z,13.67
2018-11-01T10:02:28.479Z,8.40
2018-11-01T10:04:57.338Z,8.70
2018-11-01T10:07:26.498Z,6.90
2018-11-01T10:09:55.776Z,6.50
2018-11-01T10:12:24.615Z,9.17
2018-11-01T10:14:54.355Z,7.73
2018-11-01T10:17:24.119Z,8.43
2018-11-01T10:19:52.566Z,8.67
2018-11-01T10:22:21.835Z,8.53
2018-11-01T10:24:50.531Z,7.57
2018-11-01T10:27:20.069Z,9.50
2018-11-01T10:29:49.511Z,8.80
2018-11-01T10:32:18.334Z,10.60
2018-11-01T10:34:47.672Z,9.40
2018-11-01T10:37:16.474Z,8.20
2018-11-01T10:39:45.464Z,9.93
2018-11-01T10:42:14.681Z,10.87
2018-11-01T10:44:43.619Z,6.73
2018-11-01T10:47:12.639Z,7.83
2018-11-01T10:49:43.761Z,7.67
2018-11-01T10:52:12.985Z,5.57
2018-11-01T10:54:43.194Z,6.20
2018-11-01T10:57:12.032Z,6.00
2018-11-01T10:59:46.103Z,5.47
2018-11-01T11:02:16.032Z,6.37
2018-11-01T11:04:45.058Z,8.67
2018-11-01T11:07:17.458Z,6.40
2018-11-01T11:09:47.129Z,7.87
2018-11-01T11:12:16.260Z,6.13
2018-11-01T11:14:45.536Z,6.37
2018-11-01T11:17:14.632Z,4.90
2018-11-01T11:19:43.751Z,7.17
2018-11-01T11:22:12.647Z,6.17
2018-11-01T11:24:43.244Z,6.30
2018-11-01T11:27:12.092Z,7.27
2018-11-01T11:29:41.463Z,7.93
2018-11-01T11:32:10.346Z,5.30
2018-11-01T11:34:40.158Z,4.73
2018-11-01T11:37:09.425Z,8.20
2018-11-01T11:39:38.324Z,4.60
2018-11-01T11:42:07.832Z,8.57
2018-11-01T11:44:36.719Z,7.27
2018-11-01T11:47:05.566Z,12.53
2018-11-01T11:49:35.363Z,9.03
2018-11-01T11:52:04.700Z,9.20
2018-11-01T11:54:33.599Z,5.77
2018-11-01T11:59:31.316Z,5.57
2018-11-01T12:02:00.167Z,5.30
2018-11-01T12:04:28.869Z,7.37
2018-11-01T12:06:57.769Z,8.93
2018-11-01T12:09:26.741Z,7.57
2018-11-01T12:11:57.328Z,6.83
2018-11-01T12:14:26.941Z,7.50
2018-11-01T12:16:56.240Z,6.23
2018-11-01T12:19:25.104Z,5.37
2018-11-01T12:21:54.443Z,4.40
2018-11-01T12:24:23.264Z,5.70
2018-11-01T12:26:52.631Z,6.97
2018-11-01T12:29:22.720Z,5.90
2018-11-01T12:31:51.705Z,7.33
2018-11-01T12:34:20.485Z,5.10
2018-11-01T12:36:49.256Z,6.37
2018-11-01T12:39:18.551Z,8.30
2018-11-01T12:41:47.530Z,6.53
2018-11-01T12:44:16.746Z,6.00
2018-11-01T12:46:46.082Z,9.90
2018-11-01T12:49:15.643Z,7.60
2018-11-01T12:51:44.588Z,5.63
2018-11-01T12:54:13.784Z,7.37
2018-11-01T12:56:43.611Z,6.43
2018-11-01T12:59:13.352Z,6.87
2018-11-01T13:01:42.197Z,6.57
2018-11-01T13:04:10.962Z,9.83
2018-11-01T13:06:39.790Z,9.33
2018-11-01T13:09:12.281Z,7.17
2018-11-01T13:11:41.337Z,7.43
2018-11-01T13:14:10.187Z,8.97
2018-11-01T13:16:39.817Z,7.30
2018-11-01T13:19:09.021Z,8.83
2018-11-01T13:21:39.163Z,5.80
2018-11-01T13:24:08.600Z,6.10
2018-11-01T13:26:37.646Z,5.83
2018-11-01T13:29:06.419Z,7.00
2018-11-01T13:31:35.233Z,5.87
2018-11-01T13:34:04.505Z,5.90
2018-11-01T13:36:33.418Z,5.87
2018-11-01T13:39:02.721Z,7.83
2018-11-01T13:41:32.101Z,6.97
2018-11-01T13:44:01.220Z,9.10
2018-11-01T13:46:30.991Z,6.80
2018-11-01T13:49:03.435Z,8.10
2018-11-01T13:51:32.732Z,9.50
2018-11-01T13:54:02.108Z,8.30
2018-11-01T13:56:31.016Z,6.70
2018-11-01T13:59:00.219Z,8.40
2018-11-01T14:01:29.420Z,8.83
2018-11-01T14:03:58.240Z,7.60
2018-11-01T14:06:27.359Z,8.13
2018-11-01T14:08:56.370Z,8.47
2018-11-01T14:11:25.583Z,6.97
2018-11-01T15:15:36.886Z,12.40
2018-11-01T15:20:33.312Z,9.60
2018-11-01T15:23:02.428Z,10.93
2018-11-01T15:25:31.488Z,11.73
2018-11-01T15:28:00.497Z,9.07
2018-11-01T16:07:32.142Z,9.33
2018-11-01T16:10:01.350Z,8.70
2018-11-01T16:12:30.521Z,9.13
2018-11-01T16:14:59.310Z,9.57
2018-11-01T16:17:27.902Z,9.20
2018-11-01T17:29:02.492Z,11.70
2018-11-01T20:41:38.776Z,7.10
2018-11-01T21:40:54.569Z,9.20
2018-11-01T21:50:48.766Z,7.73
2018-11-01T22:15:29.340Z,7.97
2018-11-01T22:42:40.040Z,8.55
2018-11-01T23:09:52.025Z,6.60
2018-11-01T23:12:20.811Z,9.00
2018-11-01T23:17:17.615Z,7.23
2018-11-01T23:19:46.367Z,8.03
2018-11-01T23:39:42.983Z,7.10
2018-11-01T23:42:17.439Z,9.00
2018-11-01T23:47:25.558Z,8.20
2018-11-01T23:50:02.075Z,7.90
2018-11-01T23:57:26.918Z,7.03
2018-11-01T23:59:55.703Z,7.10
